Time;durP1;ratioP1;P1;durP2;ratioP2;P2;SDS_P1;SDS_P2;PMS_P1;PMS_P2;Temp;Humidity;BMP_temperature;BMP_pressure;BME280_temperature;BME280_humidity;BME280_pressure;Samples;Min_cycle;Max_cycle;Signal;HPM_P1;HPM_P2
2024/03/21 00:02:15;;;;;;;17.77;4.97;;;13.20;99.90;;;;;;5088660;28;20028;-64
2024/03/21 00:04:41;;;;;;;6.82;4.40;;;13.10;99.90;;;;;;5087444;28;20118;-64
2024/03/21 00:07:07;;;;;;;9.57;4.50;;;13.00;99.90;;;;;;5087178;28;20103;-66
2024/03/21 00:09:33;;;;;;;7.43;5.17;;;13.20;99.90;;;;;;5086765;28;20077;-64
2024/03/21 00:11:59;;;;;;;7.57;4.35;;;13.40;99.90;;;;;;5086136;28;20020;-64
2024/03/21 00:14:25;;;;;;;6.68;4.07;;;13.20;99.90;;;;;;5086402;28;20028;-64
2024/03/21 00:16:51;;;;;;;7.97;4.00;;;13.30;99.90;;;;;;5088749;28;20028;-64
2024/03/21 00:19:18;;;;;;;8.05;4.78;;;13.40;99.90;;;;;;5088228;28;20140;-64
2024/03/21 00:21:45;;;;;;;7.95;4.05;;;13.20;99.90;;;;;;5088277;28;20085;-65
2024/03/21 00:24:11;;;;;;;4.45;3.47;;;13.20;99.90;;;;;;5086691;28;20120;-64
2024/03/21 00:26:36;;;;;;;9.57;3.70;;;13.30;99.90;;;;;;5088044;28;20036;-65
2024/03/21 00:29:04;;;;;;;6.23;4.07;;;13.30;99.90;;;;;;5087936;28;20032;-63
2024/03/21 00:31:34;;;;;;;6.57;4.28;;;13.30;99.90;;;;;;5087556;28;20527;-64
2024/03/21 00:34:00;;;;;;;6.40;4.45;;;13.30;99.90;;;;;;5087417;28;20040;-67
2024/03/21 00:36:26;;;;;;;6.30;3.45;;;13.40;99.90;;;;;;5086817;28;20110;-68
2024/03/21 00:38:52;;;;;;;5.90;3.60;;;13.10;99.90;;;;;;5085513;28;20036;-67
2024/03/21 00:41:19;;;;;;;5.93;3.45;;;13.20;99.90;;;;;;5086945;28;20626;-69
2024/03/21 00:43:44;;;;;;;10.00;4.65;;;13.10;99.90;;;;;;5086671;28;20056;-67
2024/03/21 00:46:10;;;;;;;8.87;4.23;;;13.30;99.90;;;;;;5086933;28;20046;-65
2024/03/21 00:48:35;;;;;;;10.03;4.50;;;13.20;99.90;;;;;;5086906;28;20028;-65
2024/03/21 00:51:01;;;;;;;8.33;4.10;;;13.30;99.90;;;;;;5087304;28;20024;-67
2024/03/21 00:53:27;;;;;;;11.40;4.37;;;13.40;99.90;;;;;;5086884;28;20451;-66
2024/03/21 00:55:52;;;;;;;7.93;4.17;;;13.30;99.90;;;;;;5085175;28;20028;-66
2024/03/21 00:58:18;;;;;;;4.97;3.37;;;13.20;99.90;;;;;;5085887;28;20059;-68
2024/03/21 01:00:44;;;;;;;4.50;3.03;;;13.10;99.90;;;;;;5086536;28;20612;-65
2024/03/21 01:03:10;;;;;;;5.90;3.80;;;13.30;99.60;;;;;;5086567;28;20048;-72
2024/03/21 01:05:36;;;;;;;10.27;3.40;;;13.50;98.50;;;;;;5086755;28;20458;-72
2024/03/21 01:08:02;;;;;;;4.20;3.28;;;13.40;99.20;;;;;;5087357;28;20024;-65
2024/03/21 01:10:27;;;;;;;8.82;3.72;;;13.30;99.50;;;;;;5086530;28;20475;-64
2024/03/21 01:12:53;;;;;;;5.80;3.03;;;13.30;99.10;;;;;;5086253;28;20035;-65
2024/03/21 01:15:20;;;;;;;5.83;2.93;;;13.20;99.90;;;;;;5086515;28;20469;-65
2024/03/21 01:17:46;;;;;;;6.03;3.33;;;13.10;99.90;;;;;;5086287;28;20081;-65
2024/03/21 01:20:12;;;;;;;4.40;3.13;;;13.10;99.90;;;;;;5086181;28;20036;-65
2024/03/21 01:22:37;;;;;;;5.37;3.17;;;13.00;99.90;;;;;;5086348;28;20024;-64
2024/03/21 01:25:04;;;;;;;5.90;2.77;;;13.20;99.90;;;;;;5086346;28;20039;-64
2024/03/21 01:27:30;;;;;;;4.85;3.08;;;13.10;99.90;;;;;;5082055;28;20062;-64
2024/03/21 01:29:56;;;;;;;7.90;3.78;;;12.90;99.90;;;;;;5065415;28;20055;-70
2024/03/21 01:32:22;;;;;;;4.80;2.97;;;12.90;99.90;;;;;;5065931;28;20032;-64
2024/03/21 01:34:48;;;;;;;6.82;3.40;;;12.90;99.90;;;;;;5065644;28;20353;-67
2024/03/21 01:37:13;;;;;;;6.03;3.30;;;13.00;99.90;;;;;;5065728;28;20111;-64
2024/03/21 01:39:39;;;;;;;6.93;3.23;;;13.10;99.90;;;;;;5079824;28;20373;-65
2024/03/21 01:42:05;;;;;;;4.68;2.83;;;13.00;99.90;;;;;;5086760;28;20023;-64
2024/03/21 01:44:31;;;;;;;6.40;3.10;;;13.20;99.50;;;;;;5086035;28;20047;-66
2024/03/21 01:46:58;;;;;;;9.17;3.17;;;13.40;99.00;;;;;;5086387;28;20077;-64
2024/03/21 01:49:24;;;;;;;;;;;13.10;99.80;;;;;;5086275;28;20024;-64
2024/03/21 01:51:51;;;;;;;6.15;2.83;;;13.00;99.90;;;;;;5085870;28;19915;-65
2024/03/21 01:54:17;;;;;;;5.38;3.65;;;12.70;99.90;;;;;;5085165;28;20407;-65
2024/03/21 01:56:44;;;;;;;5.05;3.50;;;12.80;99.90;;;;;;5085768;28;20031;-65
2024/03/21 01:59:10;;;;;;;4.97;3.38;;;12.70;99.90;;;;;;5085739;28;20028;-68
2024/03/21 02:01:36;;;;;;;6.68;3.13;;;12.70;99.90;;;;;;5085900;28;20028;-69
2024/03/21 02:04:04;;;;;;;6.25;4.00;;;12.80;99.90;;;;;;5085842;28;20177;-65
2024/03/21 02:06:32;;;;;;;7.93;3.50;;;13.00;99.90;;;;;;5085484;28;20031;-72
2024/03/21 02:08:58;;;;;;;3.92;3.13;;;12.80;99.90;;;;;;5087071;28;20043;-71
2024/03/21 02:11:24;;;;;;;;;;;12.70;99.90;;;;;;5087331;28;20027;-70
2024/03/21 02:13:52;;;;;;;6.72;2.95;;;12.70;99.90;;;;;;5086698;28;19908;-67
2024/03/21 02:16:18;;;;;;;6.32;3.50;;;12.60;99.90;;;;;;5086520;28;20028;-68
2024/03/21 02:18:43;;;;;;;4.87;3.00;;;12.70;99.90;;;;;;5086152;28;20141;-68
2024/03/21 02:23:53;;;;;;;5.05;3.72;;;12.70;99.90;;;;;;5086065;28;20089;-72
2024/03/21 02:26:19;;;;;;;9.98;2.90;;;12.90;99.90;;;;;;5086026;28;20042;-65
2024/03/21 02:28:47;;;;;;;4.82;2.95;;;12.80;99.90;;;;;;5085745;28;20040;-70
2024/03/21 02:31:13;;;;;;;6.43;2.78;;;12.90;99.90;;;;;;5086006;28;20032;-72
2024/03/21 02:33:38;;;;;;;7.13;3.35;;;12.90;99.90;;;;;;5085834;28;20055;-64
2024/03/21 02:36:04;;;;;;;8.80;3.40;;;13.10;99.90;;;;;;5086303;28;20092;-71
2024/03/21 02:38:30;;;;;;;3.85;2.75;;;13.30;99.70;;;;;;5085836;28;20054;-70
2024/03/21 02:40:56;;;;;;;5.22;3.20;;;13.10;99.90;;;;;;5085360;28;20098;-68
2024/03/21 02:43:21;;;;;;;6.73;3.07;;;13.10;99.90;;;;;;5085247;28;20044;-70
2024/03/21 02:45:47;;;;;;;8.80;3.00;;;12.90;99.90;;;;;;5085332;28;20399;-67
2024/03/21 02:48:13;;;;;;;6.97;2.97;;;12.70;99.90;;;;;;5085259;28;20111;-64
2024/03/21 02:50:38;;;;;;;6.33;3.27;;;12.70;99.90;;;;;;5085821;28;20369;-65
2024/03/21 02:53:04;;;;;;;5.13;3.27;;;12.60;99.90;;;;;;5085869;28;20071;-64
2024/03/21 02:55:30;;;;;;;6.70;3.27;;;12.50;99.90;;;;;;5085558;28;20358;-65
2024/03/21 02:57:56;;;;;;;5.25;3.30;;;12.70;99.90;;;;;;5085607;28;20104;-65
2024/03/21 03:00:21;;;;;;;5.27;3.30;;;13.20;99.30;;;;;;5067134;28;20206;-64
2024/03/21 03:02:48;;;;;;;4.30;2.83;;;13.20;99.20;;;;;;5085496;28;20016;-64
2024/03/21 03:05:15;;;;;;;6.45;3.67;;;13.20;99.10;;;;;;5085636;28;20314;-65
2024/03/21 03:07:40;;;;;;;4.85;3.33;;;13.10;99.90;;;;;;5087974;28;20046;-64
2024/03/21 03:10:07;;;;;;;6.63;3.70;;;12.80;99.90;;;;;;5089683;28;20430;-64
2024/03/21 03:12:33;;;;;;;6.20;3.40;;;12.60;99.90;;;;;;5089402;28;20032;-64
2024/03/21 03:14:58;;;;;;;9.77;3.30;;;12.50;99.90;;;;;;5089697;28;20400;-66
2024/03/21 03:17:24;;;;;;;11.73;3.63;;;12.80;99.90;;;;;;5089059;28;20028;-64
2024/03/21 03:19:49;;;;;;;6.17;3.57;;;12.60;99.90;;;;;;5089881;28;20119;-65
2024/03/21 03:22:15;;;;;;;5.80;3.43;;;12.60;99.90;;;;;;5090579;28;20487;-65
2024/03/21 03:24:41;;;;;;;4.57;2.67;;;12.50;99.90;;;;;;5090496;28;20032;-66
2024/03/21 03:27:06;;;;;;;4.80;2.87;;;12.40;99.90;;;;;;5089980;28;20040;-70
2024/03/21 03:29:32;;;;;;;3.60;3.07;;;12.40;99.90;;;;;;5089244;28;20059;-69
2024/03/21 03:32:03;;;;;;;7.70;3.73;;;12.40;99.90;;;;;;5089388;28;20032;-69
2024/03/21 03:37:16;;;;;;;5.17;3.47;;;12.30;99.90;;;;;;5089691;28;20568;-70
2024/03/21 03:39:42;;;;;;;9.37;3.90;;;12.80;99.90;;;;;;5088083;28;20266;-65
2024/03/21 03:42:07;;;;;;;6.60;3.40;;;12.90;99.90;;;;;;5088613;28;20040;-65
2024/03/21 03:44:33;;;;;;;5.32;3.22;;;12.90;99.90;;;;;;5088017;28;20573;-66
2024/03/21 03:46:59;;;;;;;9.40;4.23;;;13.00;99.50;;;;;;5088108;28;20059;-67
2024/03/21 03:49:24;;;;;;;4.20;3.10;;;12.90;99.80;;;;;;5087949;28;20274;-64
2024/03/21 03:51:50;;;;;;;8.00;3.27;;;13.00;99.70;;;;;;5088022;28;20035;-67
2024/03/21 03:54:16;;;;;;;8.77;3.10;;;12.90;99.90;;;;;;5087751;28;20027;-67
2024/03/21 03:56:42;;;;;;;4.03;3.00;;;12.80;99.90;;;;;;5088303;28;20081;-65
2024/03/21 03:59:07;;;;;;;4.80;3.27;;;12.90;99.60;;;;;;5088759;28;20031;-66
2024/03/21 04:01:33;;;;;;;6.17;2.97;;;12.90;99.40;;;;;;5088386;28;20431;-65
2024/03/21 04:03:59;;;;;;;5.43;2.90;;;12.80;99.40;;;;;;5088388;28;20030;-66
2024/03/21 04:06:24;;;;;;;4.60;3.40;;;12.60;99.90;;;;;;5087932;28;20028;-72
2024/03/21 04:08:50;;;;;;;6.83;3.23;;;12.70;99.90;;;;;;5087544;28;20067;-70
2024/03/21 04:11:17;;;;;;;7.60;3.43;;;12.60;99.90;;;;;;5087612;28;20467;-72
2024/03/21 04:13:43;;;;;;;7.07;3.38;;;12.60;99.90;;;;;;5087423;28;20298;-70
2024/03/21 04:16:13;;;;;;;3.78;2.97;;;12.90;99.90;;;;;;5087657;28;20067;-71
2024/03/21 04:18:39;;;;;;;4.05;2.90;;;12.60;99.90;;;;;;5087854;28;20544;-67
2024/03/21 04:21:05;;;;;;;4.43;2.90;;;12.70;99.90;;;;;;5087566;28;20024;-64
2024/03/21 04:23:30;;;;;;;6.30;3.10;;;12.70;99.90;;;;;;5085657;28;20385;-71
2024/03/21 04:25:56;;;;;;;5.60;3.43;;;12.50;99.90;;;;;;5087812;28;20051;-72
2024/03/21 04:28:22;;;;;;;5.57;3.33;;;12.90;99.10;;;;;;5087917;28;20107;-68
2024/03/21 04:30:47;;;;;;;4.03;2.97;;;13.10;98.10;;;;;;5087781;28;20032;-70
2024/03/21 04:33:13;;;;;;;7.93;3.93;;;12.80;98.90;;;;;;5087244;28;20039;-69
2024/03/21 04:35:39;;;;;;;5.28;3.40;;;12.40;99.90;;;;;;5087333;28;20054;-67
2024/03/21 04:38:07;;;;;;;7.28;3.08;;;12.10;99.90;;;;;;5087606;28;20538;-67
2024/03/21 04:40:33;;;;;;;8.32;3.40;;;12.00;99.90;;;;;;5086868;28;20428;-65
2024/03/21 04:42:58;;;;;;;5.07;2.92;;;12.20;99.90;;;;;;5086617;28;20044;-65
2024/03/21 04:45:24;;;;;;;4.47;3.37;;;12.10;99.90;;;;;;5087147;28;20081;-64
2024/03/21 04:47:51;;;;;;;9.25;2.83;;;12.00;99.90;;;;;;5087104;28;20028;-64
2024/03/21 04:50:17;;;;;;;3.85;3.40;;;12.00;99.90;;;;;;5087014;28;20106;-64
2024/03/21 04:52:42;;;;;;;3.72;2.92;;;12.10;99.90;;;;;;5086902;28;20028;-65
2024/03/21 04:55:08;;;;;;;7.80;3.80;;;12.00;99.90;;;;;;5087879;28;20753;-64
2024/03/21 04:57:33;;;;;;;4.30;3.17;;;11.80;99.90;;;;;;5087898;28;20035;-69
2024/03/21 04:59:59;;;;;;;12.30;3.93;;;11.90;99.90;;;;;;5087041;28;20035;-64
2024/03/21 05:02:24;;;;;;;6.63;3.73;;;11.80;99.90;;;;;;5086826;28;20383;-65
2024/03/21 05:04:50;;;;;;;7.43;4.13;;;11.70;99.90;;;;;;5086438;28;20095;-67
2024/03/21 05:07:15;;;;;;;11.00;3.90;;;11.50;99.90;;;;;;5086646;28;20031;-66
2024/03/21 05:09:41;;;;;;;5.07;3.83;;;11.30;99.90;;;;;;5086464;28;20488;-70
2024/03/21 05:12:07;;;;;;;7.07;3.73;;;11.20;99.90;;;;;;5086878;28;20032;-65
2024/03/21 05:14:34;;;;;;;9.57;5.38;;;11.10;99.90;;;;;;5086449;28;20020;-65
2024/03/21 05:17:04;;;;;;;13.80;3.90;;;11.00;99.90;;;;;;5086180;28;20115;-64
2024/03/21 05:19:29;;;;;;;7.32;4.32;;;10.90;99.90;;;;;;5102445;28;20039;-69
2024/03/21 05:21:55;;;;;;;9.20;4.77;;;10.80;99.90;;;;;;5087089;28;20095;-73
2024/03/21 05:24:21;;;;;;;6.97;4.57;;;10.80;99.90;;;;;;5087220;28;20499;-66
2024/03/21 05:26:46;;;;;;;9.23;5.20;;;10.60;99.90;;;;;;5086700;28;20103;-68
2024/03/21 05:29:12;;;;;;;11.73;5.27;;;10.60;99.90;;;;;;5085917;28;20024;-67
2024/03/21 05:31:37;;;;;;;7.17;4.47;;;10.60;99.90;;;;;;5086720;28;20111;-64
2024/03/21 05:34:03;;;;;;;7.50;4.87;;;10.50;99.90;;;;;;5086500;28;20573;-68
2024/03/21 05:36:29;;;;;;;9.63;5.70;;;10.40;99.90;;;;;;5085613;28;20383;-70
2024/03/21 05:38:56;;;;;;;9.33;5.27;;;10.40;99.90;;;;;;5085910;28;20121;-64
2024/03/21 05:41:21;;;;;;;10.88;5.38;;;10.40;99.90;;;;;;5086170;28;20036;-63
2024/03/21 05:43:47;;;;;;;13.40;5.50;;;10.50;99.90;;;;;;5085366;28;20063;-66
2024/03/21 05:46:12;;;;;;;10.07;5.10;;;10.60;99.90;;;;;;5085145;28;20016;-65
2024/03/21 05:48:39;;;;;;;7.90;5.20;;;10.60;99.90;;;;;;5085834;28;20388;-64
2024/03/21 05:51:05;;;;;;;8.98;5.85;;;10.50;99.90;;;;;;5085877;28;20024;-64
2024/03/21 05:53:30;;;;;;;22.47;5.60;;;10.30;99.90;;;;;;5085964;28;20036;-64
2024/03/21 05:55:58;;;;;;;10.37;4.83;;;10.30;99.90;;;;;;5086124;28;20274;-64
2024/03/21 05:58:24;;;;;;;6.93;5.03;;;10.50;99.90;;;;;;5086090;28;20036;-65
2024/03/21 06:03:32;;;;;;;8.23;5.05;;;10.80;99.90;;;;;;5085136;28;20040;-64
2024/03/21 06:05:59;;;;;;;10.73;5.38;;;11.00;99.90;;;;;;5085350;28;20435;-69
2024/03/21 06:08:25;;;;;;;11.15;5.53;;;11.10;99.90;;;;;;5085408;28;20085;-67
2024/03/21 06:10:50;;;;;;;8.53;5.17;;;11.10;99.90;;;;;;5085536;28;20032;-71
2024/03/21 06:13:16;;;;;;;13.40;5.33;;;11.10;99.90;;;;;;5085698;28;20040;-65
2024/03/21 06:15:42;;;;;;;10.25;4.97;;;11.20;99.90;;;;;;5085916;28;20056;-68
2024/03/21 06:18:08;;;;;;;13.37;5.77;;;11.20;99.90;;;;;;5085657;28;20056;-72
2024/03/21 06:20:34;;;;;;;12.80;6.32;;;11.30;99.90;;;;;;5085349;28;20059;-68
2024/03/21 06:23:00;;;;;;;11.10;6.50;;;11.30;99.90;;;;;;5086167;28;20040;-73
2024/03/21 06:25:25;;;;;;;10.10;6.00;;;11.40;99.90;;;;;;5086651;28;20488;-71
2024/03/21 06:27:52;;;;;;;10.70;6.22;;;11.50;99.90;;;;;;5085981;28;20120;-71
2024/03/21 06:30:18;;;;;;;11.13;6.88;;;11.70;99.90;;;;;;5086605;28;20032;-65
2024/03/21 06:32:44;;;;;;;12.50;6.82;;;11.90;99.90;;;;;;5085984;28;20028;-64
2024/03/21 06:35:13;;;;;;;8.48;5.80;;;12.10;99.90;;;;;;5085420;28;20552;-68
2024/03/21 06:37:38;;;;;;;9.52;6.80;;;12.10;99.90;;;;;;5085247;28;20024;-67
2024/03/21 06:40:05;;;;;;;13.10;7.10;;;12.20;99.90;;;;;;5084918;28;20032;-71
2024/03/21 06:42:32;;;;;;;8.55;5.13;;;12.30;99.90;;;;;;5085010;28;20036;-74
2024/03/21 06:45:01;;;;;;;;;;;12.50;99.90;;;;;;5085382;28;20039;-69
2024/03/21 06:47:27;;;;;;;8.57;6.25;;;12.50;99.90;;;;;;5085592;28;19907;-73
2024/03/21 06:49:53;;;;;;;11.55;7.45;;;12.50;99.90;;;;;;5085427;28;20052;-71
2024/03/21 06:52:19;;;;;;;11.90;6.60;;;12.50;99.90;;;;;;5084925;28;20030;-72
2024/03/21 06:54:45;;;;;;;11.63;6.93;;;12.60;99.90;;;;;;5085290;28;20077;-64
2024/03/21 06:57:11;;;;;;;17.77;7.38;;;12.40;99.90;;;;;;5085220;28;20028;-66
2024/03/21 06:59:37;;;;;;;13.07;7.37;;;12.40;99.90;;;;;;5085096;28;20032;-64
2024/03/21 07:02:03;;;;;;;;;;;12.60;99.90;;;;;;5085531;28;20945;-66
2024/03/21 07:04:29;;;;;;;16.85;6.65;;;12.80;99.90;;;;;;5084616;28;19916;-67
2024/03/21 07:06:54;;;;;;;9.17;6.43;;;12.90;99.90;;;;;;5084661;28;20505;-65
2024/03/21 07:09:20;;;;;;;13.07;8.20;;;13.10;99.90;;;;;;5084638;28;20108;-64
2024/03/21 07:11:45;;;;;;;14.20;6.70;;;13.00;99.90;;;;;;5085280;28;20013;-65
2024/03/21 07:14:11;;;;;;;13.47;6.57;;;13.20;99.90;;;;;;5085118;28;20387;-70
2024/03/21 07:16:36;;;;;;;13.67;6.90;;;13.60;99.90;;;;;;5085265;28;20131;-65
2024/03/21 07:19:02;;;;;;;13.67;6.20;;;14.30;99.90;;;;;;5085121;28;20431;-65
2024/03/21 07:21:28;;;;;;;11.57;6.15;;;15.00;97.60;;;;;;5085184;28;20383;-69
2024/03/21 07:23:54;;;;;;;9.30;5.83;;;15.70;95.20;;;;;;5084431;28;20089;-66
2024/03/21 07:26:19;;;;;;;13.70;6.17;;;16.40;93.20;;;;;;5084331;28;20035;-72
2024/03/21 07:28:45;;;;;;;13.80;6.20;;;16.70;91.30;;;;;;5084931;28;20085;-67
2024/03/21 07:31:10;;;;;;;11.20;6.17;;;16.10;92.90;;;;;;5085236;28;20081;-71
2024/03/21 07:33:36;;;;;;;10.67;5.67;;;16.30;91.30;;;;;;5084462;28;20075;-68
2024/03/21 07:36:02;;;;;;;10.37;6.33;;;16.10;91.70;;;;;;5084232;28;20024;-69
2024/03/21 07:38:28;;;;;;;11.15;5.75;;;15.90;91.80;;;;;;5084920;28;20033;-68
2024/03/21 07:40:57;;;;;;;13.37;5.60;;;16.40;91.50;;;;;;5085313;28;20034;-69
2024/03/21 07:43:24;;;;;;;10.95;5.32;;;16.60;90.40;;;;;;5084422;28;20344;-66
2024/03/21 07:45:50;;;;;;;8.80;5.90;;;17.20;88.20;;;;;;5085107;28;20020;-70
2024/03/21 07:48:16;;;;;;;11.40;5.60;;;17.90;85.70;;;;;;5085642;28;20040;-66
2024/03/21 07:50:41;;;;;;;16.25;5.43;;;17.40;87.40;;;;;;5084884;28;20133;-67
2024/03/21 07:53:07;;;;;;;8.93;5.23;;;17.00;87.00;;;;;;5085968;28;20028;-64
2024/03/21 07:55:33;;;;;;;12.40;5.50;;;17.30;85.90;;;;;;5088406;28;20380;-66
2024/03/21 07:58:00;;;;;;;13.20;5.65;;;17.20;87.60;;;;;;5088201;28;20024;-65
2024/03/21 08:00:28;;;;;;;10.65;4.05;;;17.60;84.70;;;;;;5088112;28;20024;-64
2024/03/21 08:02:54;;;;;;;10.57;4.80;;;18.20;85.80;;;;;;5088964;28;20065;-65
2024/03/21 08:05:20;;;;;;;14.18;4.97;;;19.40;80.00;;;;;;5088961;28;20141;-65
2024/03/21 08:07:45;;;;;;;15.65;5.63;;;20.40;78.20;;;;;;5088476;28;20134;-65
2024/03/21 08:10:11;;;;;;;12.57;5.07;;;20.10;79.90;;;;;;5087905;28;20157;-65
2024/03/21 08:12:37;;;;;;;8.63;4.95;;;20.70;78.10;;;;;;5087480;28;20266;-68
2024/03/21 08:15:03;;;;;;;13.57;5.83;;;21.30;76.40;;;;;;5087578;28;20055;-65
2024/03/21 08:17:29;;;;;;;20.77;5.53;;;21.70;72.40;;;;;;5087588;28;20084;-68
2024/03/21 08:19:56;;;;;;;18.77;6.30;;;22.10;73.30;;;;;;5087446;28;20099;-71
2024/03/21 08:22:22;;;;;;;13.07;6.18;;;22.60;71.90;;;;;;5087405;28;20024;-72
2024/03/21 08:24:48;;;;;;;10.32;5.72;;;23.10;70.60;;;;;;5088103;28;20067;-69
2024/03/21 08:27:17;;;;;;;16.42;5.28;;;22.70;71.50;;;;;;5087658;28;20403;-69
2024/03/21 08:29:43;;;;;;;10.63;4.95;;;23.10;70.30;;;;;;5087626;28;20078;-72
2024/03/21 08:32:11;;;;;;;12.73;4.50;;;23.30;70.40;;;;;;5087358;28;20052;-74
2024/03/21 08:34:36;;;;;;;9.88;4.32;;;23.60;67.20;;;;;;5087970;28;20046;-69
2024/03/21 08:37:02;;;;;;;11.57;4.60;;;22.00;67.80;;;;;;5087574;28;20670;-65
2024/03/21 08:39:28;;;;;;;10.05;5.00;;;23.00;68.80;;;;;;5087965;28;20262;-65
2024/03/21 08:41:54;;;;;;;7.03;4.05;;;22.20;69.40;;;;;;5087731;28;20127;-65
2024/03/21 08:44:20;;;;;;;10.23;3.97;;;23.80;67.60;;;;;;5086947;28;20109;-66
2024/03/21 08:46:46;;;;;;;5.45;3.80;;;25.40;67.40;;;;;;5087526;28;20028;-66
2024/03/21 08:49:13;;;;;;;6.72;3.80;;;25.90;63.60;;;;;;5087298;28;20415;-72
2024/03/21 08:51:39;;;;;;;13.52;3.88;;;26.10;60.90;;;;;;5087205;28;20016;-68
2024/03/21 08:54:05;;;;;;;10.15;3.83;;;26.40;60.00;;;;;;5086799;28;20115;-69
2024/03/21 08:56:31;;;;;;;7.53;3.60;;;26.50;60.30;;;;;;5087152;28;20031;-71
2024/03/21 08:58:57;;;;;;;8.43;3.88;;;24.80;61.10;;;;;;5087063;28;20031;-67
2024/03/21 09:01:22;;;;;;;8.55;3.05;;;25.90;64.10;;;;;;5086714;28;20026;-67
2024/03/21 09:03:48;;;;;;;5.10;3.70;;;24.10;63.60;;;;;;5087186;28;20502;-67
2024/03/21 09:06:14;;;;;;;6.80;3.33;;;22.80;66.30;;;;;;5086993;28;20036;-69
2024/03/21 09:08:40;;;;;;;6.05;3.80;;;22.30;66.40;;;;;;5087055;28;20040;-66
2024/03/21 09:11:06;;;;;;;4.57;3.50;;;22.60;68.70;;;;;;5087091;28;20111;-69
2024/03/21 09:13:31;;;;;;;7.93;3.15;;;22.80;65.70;;;;;;5086631;28;20551;-69
2024/03/21 09:15:58;;;;;;;4.97;3.42;;;22.10;68.40;;;;;;5086871;28;20028;-72
2024/03/21 09:18:23;;;;;;;11.70;3.95;;;22.90;65.70;;;;;;5086475;28;20042;-69
2024/03/21 09:20:50;;;;;;;6.32;3.63;;;25.60;63.00;;;;;;5086495;28;20036;-67
2024/03/21 09:23:16;;;;;;;4.15;3.05;;;26.00;61.20;;;;;;5086676;28;20039;-67
2024/03/21 09:25:42;;;;;;;12.93;3.60;;;26.60;59.70;;;;;;5086615;28;20032;-66
2024/03/21 09:28:07;;;;;;;8.05;3.20;;;26.70;58.10;;;;;;5085208;28;20031;-70
2024/03/21 09:30:33;;;;;;;8.38;3.50;;;27.20;60.00;;;;;;5086089;28;20100;-65
2024/03/21 09:32:59;;;;;;;6.05;3.00;;;27.70;57.70;;;;;;5087206;28;20169;-66
2024/03/21 09:35:24;;;;;;;6.95;3.08;;;27.60;57.60;;;;;;5088929;28;20109;-66
2024/03/21 09:37:50;;;;;;;5.35;3.10;;;27.90;58.50;;;;;;5089883;28;20385;-70
2024/03/21 09:40:17;;;;;;;3.83;2.92;;;28.50;54.90;;;;;;5086468;28;20028;-71
2024/03/21 09:42:43;;;;;;;5.63;3.38;;;28.60;55.30;;;;;;5085639;28;20040;-69
2024/03/21 09:45:15;;;;;;;4.05;3.00;;;27.90;57.50;;;;;;5085855;28;20051;-66
2024/03/21 09:47:43;;;;;;;6.90;3.10;;;28.30;58.80;;;;;;5085603;28;20106;-66
2024/03/21 09:50:11;;;;;;;5.18;2.72;;;26.80;58.10;;;;;;5085107;28;20028;-66
2024/03/21 09:52:38;;;;;;;4.35;2.90;;;26.90;58.50;;;;;;5085391;28;20024;-66
2024/03/21 09:55:13;;;;;;;4.32;2.80;;;27.70;55.90;;;;;;5085793;28;20047;-65
2024/03/21 09:57:39;;;;;;;5.20;2.67;;;27.60;57.00;;;;;;5085736;28;20024;-66
2024/03/21 10:00:06;;;;;;;10.10;3.58;;;25.90;56.70;;;;;;5084630;28;20055;-65
2024/03/21 10:02:32;;;;;;;10.32;2.92;;;25.80;58.90;;;;;;5084270;28;20051;-68
2024/03/21 10:04:58;;;;;;;11.57;3.33;;;25.20;59.80;;;;;;5085054;28;20032;-66
2024/03/21 10:07:24;;;;;;;10.10;3.25;;;25.30;60.60;;;;;;5084034;28;20853;-65
2024/03/21 10:09:57;;;;;;;5.38;2.70;;;24.90;59.60;;;;;;5085651;28;20043;-65
2024/03/21 10:12:24;;;;;;;5.68;3.40;;;24.40;60.40;;;;;;5085241;28;20049;-67
2024/03/21 10:14:55;;;;;;;6.97;3.10;;;25.00;61.70;;;;;;5085731;28;20032;-66
2024/03/21 10:17:24;;;;;;;5.32;3.08;;;24.70;61.20;;;;;;5085859;28;20077;-66
2024/03/21 10:19:50;;;;;;;11.15;2.63;;;24.40;61.70;;;;;;5086385;28;20043;-65
2024/03/21 10:22:18;;;;;;;4.40;2.85;;;25.20;57.70;;;;;;5085418;28;20476;-71
2024/03/21 10:24:43;;;;;;;4.55;2.60;;;25.20;59.70;;;;;;5086051;28;20043;-73
2024/03/21 10:27:14;;;;;;;4.47;2.95;;;25.40;60.30;;;;;;5085893;28;20020;-70
2024/03/21 10:29:41;;;;;;;3.38;2.42;;;26.40;58.90;;;;;;5086080;28;20055;-67
2024/03/21 10:32:15;;;;;;;3.50;2.60;;;25.90;58.00;;;;;;5085896;28;20103;-66
2024/03/21 10:34:54;;;;;;;5.22;2.42;;;25.30;59.70;;;;;;5086111;28;20028;-68
2024/03/21 10:37:21;;;;;;;4.32;2.47;;;24.80;59.30;;;;;;5085771;28;20031;-70
2024/03/21 10:39:49;;;;;;;8.13;2.83;;;24.90;58.90;;;;;;5085453;28;20058;-69
2024/03/21 10:42:20;;;;;;;6.18;2.45;;;23.90;58.00;;;;;;5086256;28;20146;-65
2024/03/21 10:44:47;;;;;;;6.15;2.83;;;23.70;61.50;;;;;;5084866;28;20039;-65
2024/03/21 10:47:13;;;;;;;3.28;2.10;;;23.00;61.70;;;;;;5084633;28;20150;-65
2024/03/21 10:49:41;;;;;;;5.22;2.33;;;23.70;61.90;;;;;;5084568;28;20454;-65
2024/03/21 10:52:06;;;;;;;4.57;2.53;;;23.50;60.30;;;;;;5084764;28;20384;-67
2024/03/21 10:54:39;;;;;;;12.23;2.78;;;23.90;60.70;;;;;;5084668;28;20574;-66
2024/03/21 10:57:15;;;;;;;7.45;2.55;;;23.10;62.30;;;;;;5085787;28;20042;-65
2024/03/21 10:59:43;;;;;;;3.90;2.20;;;23.80;60.70;;;;;;5085935;28;20498;-66
2024/03/21 11:02:13;;;;;;;7.20;2.58;;;23.70;60.20;;;;;;5085197;28;20038;-65
2024/03/21 11:04:41;;;;;;;3.20;2.10;;;24.00;60.40;;;;;;5085746;28;20115;-67
2024/03/21 11:07:13;;;;;;;3.70;2.05;;;23.50;60.00;;;;;;5085397;28;20111;-72
2024/03/21 11:09:42;;;;;;;5.07;2.20;;;23.40;61.10;;;;;;5084480;28;20571;-67
2024/03/21 11:12:10;;;;;;;3.00;1.88;;;23.20;63.10;;;;;;5084610;28;20028;-69
2024/03/21 11:14:35;;;;;;;5.00;2.47;;;23.70;61.20;;;;;;5084714;28;20032;-71
2024/03/21 11:17:03;;;;;;;7.25;2.58;;;24.00;61.20;;;;;;5084926;28;20028;-69
2024/03/21 11:19:29;;;;;;;4.85;2.53;;;24.20;61.50;;;;;;5084664;28;20758;-65
2024/03/21 11:21:55;;;;;;;3.17;2.28;;;23.10;62.60;;;;;;5085187;28;20047;-65
2024/03/21 11:24:21;;;;;;;7.07;2.78;;;21.80;66.20;;;;;;5085063;28;20072;-70
2024/03/21 11:26:47;;;;;;;7.90;2.67;;;21.70;66.30;;;;;;5085122;28;20119;-68
2024/03/21 11:29:13;;;;;;;5.30;3.28;;;21.70;66.70;;;;;;5088109;28;20103;-67
2024/03/21 11:31:42;;;;;;;6.47;2.40;;;21.70;67.20;;;;;;5088116;28;20020;-65
2024/03/21 11:34:09;;;;;;;3.78;2.30;;;21.70;69.20;;;;;;5088540;28;20048;-67
2024/03/21 11:36:35;;;;;;;3.40;2.33;;;21.80;66.80;;;;;;5088237;28;20097;-66
2024/03/21 11:39:02;;;;;;;7.57;2.92;;;21.90;67.70;;;;;;5088424;28;20024;-65
2024/03/21 11:41:29;;;;;;;6.10;2.78;;;21.80;67.30;;;;;;5088087;28;20032;-65
2024/03/21 11:43:56;;;;;;;5.05;2.70;;;22.30;69.00;;;;;;5088306;28;20031;-69
2024/03/21 11:46:23;;;;;;;9.60;2.83;;;22.40;69.80;;;;;;5089676;28;20022;-65
2024/03/21 11:49:02;;;;;;;8.52;2.45;;;22.50;67.50;;;;;;5087916;28;20392;-65
2024/03/21 11:51:30;;;;;;;4.05;2.65;;;22.50;68.10;;;;;;5088787;28;20058;-65
2024/03/21 11:53:56;;;;;;;5.88;2.95;;;22.90;67.20;;;;;;5088353;28;20487;-65
2024/03/21 11:56:22;;;;;;;;;;;23.20;68.70;;;;;;5088925;28;20016;-65
2024/03/21 11:58:47;;;;;;;9.90;3.20;;;23.50;70.60;;;;;;5088125;28;20661;-67
2024/03/21 12:01:13;;;;;;;6.43;3.13;;;23.10;65.00;;;;;;5088318;28;20032;-64
2024/03/21 12:03:39;;;;;;;9.23;2.55;;;23.20;67.00;;;;;;5088339;28;20051;-64
2024/03/21 12:06:04;;;;;;;13.80;3.27;;;23.30;68.10;;;;;;5087948;28;20082;-65
2024/03/21 12:08:30;;;;;;;6.43;2.60;;;23.40;67.90;;;;;;5087467;28;20032;-66
2024/03/21 12:10:55;;;;;;;8.40;2.73;;;23.30;67.20;;;;;;5087682;28;20451;-65
2024/03/21 12:13:22;;;;;;;8.17;2.47;;;23.00;68.40;;;;;;5088050;28;20077;-64
2024/03/21 12:15:47;;;;;;;;;;;22.90;67.70;;;;;;5087827;28;20067;-65
2024/03/21 12:18:13;;;;;;;5.40;2.40;;;23.00;65.50;;;;;;5087666;28;19959;-64
2024/03/21 12:20:38;;;;;;;7.67;2.40;;;22.90;66.90;;;;;;5088215;28;20442;-64
2024/03/21 12:23:04;;;;;;;6.40;2.90;;;22.90;67.00;;;;;;5088266;28;20107;-65
2024/03/21 12:25:29;;;;;;;9.90;2.47;;;22.80;67.30;;;;;;5087452;28;20057;-65
2024/03/21 12:27:55;;;;;;;7.07;2.80;;;22.70;66.60;;;;;;5087686;28;20055;-65
2024/03/21 12:30:21;;;;;;;7.80;2.80;;;22.70;69.70;;;;;;5085637;28;20435;-64
2024/03/21 12:32:47;;;;;;;6.90;2.70;;;22.80;67.30;;;;;;5087317;28;20036;-65
2024/03/21 12:35:12;;;;;;;6.20;2.90;;;22.90;68.20;;;;;;5088310;28;20092;-65
2024/03/21 12:37:40;;;;;;;6.33;3.20;;;22.90;69.20;;;;;;5088154;28;20028;-68
2024/03/21 12:40:06;;;;;;;5.00;2.55;;;23.10;67.80;;;;;;5086821;28;20544;-67
2024/03/21 12:42:32;;;;;;;6.78;2.92;;;23.10;68.00;;;;;;5086964;28;20112;-67
2024/03/21 12:44:57;;;;;;;11.60;2.30;;;23.30;66.70;;;;;;5087392;28;20119;-70
2024/03/21 12:47:23;;;;;;;8.00;2.80;;;23.10;68.40;;;;;;5087507;28;20107;-71
2024/03/21 12:49:48;;;;;;;7.90;2.47;;;22.50;68.30;;;;;;5087737;28;20398;-70